Delta Virtual Airport Information Service

Marquette Sawyer International Airport

ICAO: KSAW Country: United States
Latitude: 46.3536 Longitude: -87.3953
Latest Arrival : SKW4215 (1) (KMSP-KSAW) Latest Departure : SKW4744 (KSAW-KMSP)


WX CaptureLIVE
Data provided by noaa.gov | Fetched at 11:47:51

METAR : KSAW 151547Z 02009KT 10SM CLR 18/05 A3018

TAF : KSAW 151136Z 1512/1612 01010KT P6SM SKC FM160000 VRB03KT P6SM SKC


Runway Data for KSAW
Data provided by openaviationdata.com

Runway ID Mag Var Hdg Length Elevation Surface ILS Freq ILS Id ILS Slope
1 -4 12° 12366 ft 1221 ft Asphalt 110.1 ISOU 3
19 -4 192° 12366 ft 1221 ft Asphalt -- -- --

Marquette Sawyer International Airport, United States
Use only for reference purposes



Not for navigational purposes.